Time;durP1;ratioP1;P1;durP2;ratioP2;P2;SDS_P1;SDS_P2;PMS_P1;PMS_P2;Temp;Humidity;BMP_temperature;BMP_pressure;BME280_temperature;BME280_humidity;BME280_pressure;Samples;Min_cycle;Max_cycle;Signal;HPM_P1;HPM_P2
2023/10/23 00:01:39;;;;;;;2.30;1.90;;;;;;;20.79;46.32;101269.38;5026058;28;20534;-66
2023/10/23 00:04:06;;;;;;;3.28;2.00;;;;;;;20.81;46.32;101273.50;5026995;28;20033;-66
2023/10/23 00:06:32;;;;;;;2.05;1.90;;;;;;;20.78;46.34;101280.97;5020624;28;20060;-66
2023/10/23 00:08:58;;;;;;;2.88;2.13;;;;;;;20.75;46.38;101274.22;5024985;28;20060;-66
2023/10/23 00:11:26;;;;;;;2.30;2.05;;;;;;;20.71;46.28;101269.47;5018385;28;20606;-66
2023/10/23 00:13:51;;;;;;;3.72;2.20;;;;;;;20.73;46.32;101276.22;5024894;28;20121;-66
2023/10/23 00:16:18;;;;;;;2.72;2.22;;;;;;;20.58;46.25;101255.97;5027565;28;20109;-66
2023/10/23 00:18:44;;;;;;;4.72;1.92;;;;;;;20.74;46.32;101284.97;5018383;28;20041;-66
2023/10/23 00:21:09;;;;;;;2.28;1.85;;;;;;;20.70;46.09;101281.03;5023474;28;20048;-67
2023/10/23 00:23:35;;;;;;;2.45;1.90;;;;;;;20.74;46.34;101293.75;5020431;28;20071;-66
2023/10/23 00:26:00;;;;;;;3.03;1.98;;;;;;;20.75;46.10;101287.44;5028323;28;20029;-66
2023/10/23 00:28:26;;;;;;;2.55;2.08;;;;;;;20.75;46.36;101298.03;5027882;28;20044;-67
2023/10/23 00:30:51;;;;;;;2.60;1.95;;;;;;;20.74;46.20;101296.38;5032037;28;20124;-66
2023/10/23 00:33:17;;;;;;;2.53;1.98;;;;;;;20.69;46.10;101282.88;5011373;28;20435;-66
2023/10/23 00:35:42;;;;;;;3.97;2.38;;;;;;;20.73;46.09;101296.56;5008070;28;20483;-66
2023/10/23 00:38:08;;;;;;;2.28;2.08;;;;;;;20.74;46.09;101303.50;5010663;28;20116;-66
2023/10/23 00:40:34;;;;;;;2.80;2.05;;;;;;;20.72;46.33;101306.34;5020492;28;20048;-66
2023/10/23 00:43:12;;;;;;;2.75;2.17;;;;;;;20.70;46.11;101308.34;5016649;28;20052;-66
2023/10/23 00:45:50;;;;;;;2.85;2.00;;;;;;;20.71;46.39;101312.63;5063915;28;20029;-66
2023/10/23 00:48:19;;;;;;;4.50;1.90;;;;;;;20.71;46.36;101304.69;5017094;28;20068;-66
2023/10/23 00:50:46;;;;;;;2.53;2.10;;;;;;;20.66;46.18;101303.56;5013488;28;20195;-66
2023/10/23 00:53:12;;;;;;;3.05;2.28;;;;;;;20.70;46.45;101310.97;5013818;28;20102;-66
2023/10/23 00:55:38;;;;;;;2.88;2.10;;;;;;;20.67;46.16;101305.22;5025298;28;20488;-66
2023/10/23 00:58:04;;;;;;;4.63;2.30;;;;;;;20.65;46.26;101304.56;5027820;28;20037;-66
2023/10/23 01:00:30;;;;;;;2.22;1.65;;;;;;;20.70;46.28;101310.97;5022491;28;20064;-66
2023/10/23 01:02:56;;;;;;;3.25;2.38;;;;;;;20.67;46.06;101299.91;5028684;28;20124;-66
2023/10/23 01:05:22;;;;;;;2.97;2.13;;;;;;;20.70;46.18;101312.81;5026939;28;20052;-67
2023/10/23 01:07:49;;;;;;;2.22;1.98;;;;;;;20.69;46.05;101309.34;5031314;28;20828;-66
2023/10/23 01:10:15;;;;;;;2.95;2.20;;;;;;;20.54;46.33;101291.72;5020102;28;20040;-66
2023/10/23 01:12:41;;;;;;;2.72;2.08;;;;;;;20.67;45.98;101305.22;5030071;28;20045;-66
2023/10/23 01:15:07;;;;;;;2.83;1.95;;;;;;;20.68;46.13;101318.28;5029632;28;20474;-66
2023/10/23 01:17:32;;;;;;;2.45;1.85;;;;;;;20.67;46.28;101319.28;5029463;28;20691;-66
2023/10/23 01:19:58;;;;;;;2.47;1.85;;;;;;;20.65;46.16;101315.97;5024668;28;20061;-66
2023/10/23 01:22:23;;;;;;;3.90;2.30;;;;;;;20.63;46.11;101314.47;5029347;28;20048;-66
2023/10/23 01:24:51;;;;;;;3.35;1.92;;;;;;;20.66;46.21;101320.28;5031314;28;20033;-66
2023/10/23 01:27:17;;;;;;;2.75;2.22;;;;;;;20.65;46.21;101313.31;5026296;28;20112;-66
2023/10/23 01:29:42;;;;;;;2.60;1.92;;;;;;;20.63;46.15;101312.66;5025697;28;20618;-66
2023/10/23 01:32:10;;;;;;;3.55;2.38;;;;;;;20.63;46.26;101306.53;5027444;28;20128;-66
2023/10/23 01:34:35;;;;;;;3.35;2.08;;;;;;;20.61;46.01;101306.72;5022188;28;20084;-66
2023/10/23 01:37:01;;;;;;;3.22;2.28;;;;;;;20.63;46.11;101309.19;5026539;28;20037;-66
2023/10/23 01:39:26;;;;;;;2.88;2.15;;;;;;;20.62;46.06;101311.00;5028714;28;20457;-66
2023/10/23 01:41:52;;;;;;;2.55;2.10;;;;;;;20.62;46.24;101310.19;5025244;28;20051;-66
2023/10/23 01:44:17;;;;;;;2.65;2.10;;;;;;;20.62;46.25;101310.19;5029097;28;20071;-67
2023/10/23 01:46:43;;;;;;;2.30;2.10;;;;;;;20.61;46.24;101314.66;5030855;28;20505;-66
2023/10/23 01:49:08;;;;;;;3.05;2.33;;;;;;;20.59;46.24;101314.00;5032988;28;20833;-66
2023/10/23 01:51:34;;;;;;;3.58;2.55;;;;;;;20.57;46.32;101308.06;5023572;28;20095;-66
2023/10/23 01:53:59;;;;;;;3.95;2.47;;;;;;;20.59;46.22;101314.00;5025187;28;20033;-66
2023/10/23 01:56:25;;;;;;;2.53;2.05;;;;;;;20.58;46.17;101314.19;5002151;28;20033;-66
2023/10/23 01:58:51;;;;;;;2.45;2.20;;;;;;;20.60;46.20;101314.81;5021345;28;20048;-66
2023/10/23 02:01:23;;;;;;;3.22;2.25;;;;;;;20.60;46.08;101314.81;5018659;28;20033;-66
2023/10/23 02:03:50;;;;;;;3.53;2.20;;;;;;;20.60;46.06;101314.81;5026431;28;20136;-66
2023/10/23 02:06:16;;;;;;;3.20;2.10;;;;;;;20.58;46.09;101319.47;5028756;28;20044;-66
2023/10/23 02:08:41;;;;;;;3.33;2.17;;;;;;;20.52;46.22;101310.41;5025312;28;20049;-66
2023/10/23 02:11:08;;;;;;;2.42;2.17;;;;;;;20.59;46.22;101321.13;5020890;28;20530;-66
2023/10/23 02:13:34;;;;;;;3.10;2.10;;;;;;;20.49;46.02;101310.75;5020904;28;20635;-66
2023/10/23 02:16:00;;;;;;;3.13;2.10;;;;;;;20.55;46.37;101325.09;5030415;28;20045;-66
2023/10/23 02:18:26;;;;;;;2.65;2.13;;;;;;;20.55;46.37;101330.41;5022416;28;20125;-66
2023/10/23 02:20:52;;;;;;;3.00;2.22;;;;;;;20.49;46.51;101324.81;5029763;28;20533;-66
2023/10/23 02:23:17;;;;;;;2.40;2.20;;;;;;;20.52;46.29;101328.94;5023928;28;20049;-66
2023/10/23 02:25:43;;;;;;;3.40;2.10;;;;;;;20.54;46.18;101339.34;5025011;28;20045;-65
2023/10/23 02:28:08;;;;;;;2.53;2.20;;;;;;;20.47;46.23;101324.16;5021869;28;20045;-65
2023/10/23 02:30:36;;;;;;;3.08;2.25;;;;;;;20.48;46.17;101330.28;5025847;28;20042;-66
2023/10/23 02:33:02;;;;;;;2.55;2.10;;;;;;;20.52;46.07;101334.22;5025748;28;20514;-66
2023/10/23 02:35:29;;;;;;;2.60;2.20;;;;;;;20.53;46.05;101341.16;5026763;28;20784;-66
2023/10/23 02:37:54;;;;;;;3.30;2.42;;;;;;;20.53;46.26;101346.44;5022337;28;20043;-66
2023/10/23 02:40:20;;;;;;;3.33;2.10;;;;;;;20.47;46.54;101342.69;5028353;28;20482;-66
2023/10/23 02:42:46;;;;;;;3.05;2.35;;;;;;;20.39;46.35;101326.78;5024803;28;20037;-66
2023/10/23 02:45:13;;;;;;;2.85;2.22;;;;;;;20.47;46.30;101342.69;5023996;28;20074;-66
2023/10/23 02:47:39;;;;;;;2.90;2.30;;;;;;;20.52;46.26;101352.75;5024818;28;20515;-66
2023/10/23 02:50:05;;;;;;;3.15;2.30;;;;;;;20.49;46.18;101353.91;5019357;28;20063;-66
2023/10/23 02:52:31;;;;;;;2.25;2.00;;;;;;;20.51;46.28;101348.44;5006356;28;20126;-66
2023/10/23 02:54:56;;;;;;;2.80;2.40;;;;;;;20.49;46.05;101355.72;5024273;28;20045;-66
2023/10/23 02:57:22;;;;;;;2.80;2.10;;;;;;;20.35;46.14;101329.94;5016183;28;20536;-66
2023/10/23 02:59:47;;;;;;;2.47;2.20;;;;;;;20.47;46.16;101344.50;5021539;28;20050;-66
2023/10/23 03:02:18;;;;;;;3.22;2.20;;;;;;;20.48;46.28;101348.78;5030183;28;20040;-66
2023/10/23 03:04:43;;;;;;;2.63;2.15;;;;;;;20.48;46.06;101351.44;5020661;28;20638;-66
2023/10/23 03:07:10;;;;;;;2.60;2.00;;;;;;;20.48;46.26;101357.56;5031638;28;20048;-66
2023/10/23 03:09:36;;;;;;;3.45;2.55;;;;;;;20.45;46.18;101346.47;5024830;28;20060;-66
2023/10/23 03:12:03;;;;;;;3.10;2.28;;;;;;;20.45;46.21;101347.28;5022441;28;20053;-66
2023/10/23 03:14:28;;;;;;;3.42;2.40;;;;;;;20.44;46.23;101358.88;5026079;28;20123;-66
2023/10/23 03:16:54;;;;;;;2.35;2.15;;;;;;;20.46;46.17;101353.41;5030115;28;20876;-66
2023/10/23 03:19:22;;;;;;;3.40;2.40;;;;;;;20.41;46.24;101361.84;5035551;28;20033;-66
2023/10/23 03:21:48;;;;;;;3.00;2.15;;;;;;;20.42;46.28;101362.69;5025459;28;20140;-66
2023/10/23 03:24:15;;;;;;;2.45;2.25;;;;;;;20.43;46.14;101367.81;5027906;28;21879;-66
2023/10/23 03:26:41;;;;;;;2.65;2.10;;;;;;;20.44;46.53;101365.97;5028066;28;20040;-66
2023/10/23 03:29:07;;;;;;;2.92;2.05;;;;;;;20.43;46.13;101362.50;5017694;28;20049;-66
2023/10/23 03:31:50;;;;;;;2.42;2.03;;;;;;;20.43;46.29;101356.41;5029232;28;20041;-66
2023/10/23 03:34:16;;;;;;;3.10;2.20;;;;;;;20.42;46.27;101365.31;5018055;28;20045;-66
2023/10/23 03:36:42;;;;;;;3.38;2.20;;;;;;;20.42;46.20;101358.22;5032476;28;20061;-66
2023/10/23 03:39:07;;;;;;;3.78;2.13;;;;;;;20.42;46.22;101366.16;5021884;28;20049;-66
2023/10/23 03:41:33;;;;;;;2.92;2.30;;;;;;;20.41;46.09;101375.09;5029785;28;20110;-66
2023/10/23 03:44:01;;;;;;;2.65;2.15;;;;;;;20.32;46.21;101359.41;5022494;28;20037;-66
2023/10/23 03:46:27;;;;;;;2.80;2.38;;;;;;;20.43;46.19;101378.38;5025755;28;20495;-66
2023/10/23 03:48:54;;;;;;;2.88;2.33;;;;;;;20.37;46.11;101371.09;5022047;28;20044;-66
2023/10/23 03:51:20;;;;;;;2.50;2.17;;;;;;;20.41;46.20;101383.03;5021127;28;20042;-66
2023/10/23 03:53:46;;;;;;;4.53;2.50;;;;;;;20.39;46.28;101379.69;5024160;28;20029;-66
2023/10/23 03:56:11;;;;;;;3.90;2.40;;;;;;;20.40;46.09;101383.97;5020819;28;20042;-66
2023/10/23 03:58:37;;;;;;;2.85;2.30;;;;;;;20.35;46.25;101369.63;5027969;28;20045;-66
2023/10/23 04:01:02;;;;;;;3.53;2.25;;;;;;;20.42;46.07;101382.03;5023898;28;20044;-66
2023/10/23 04:03:28;;;;;;;3.40;2.45;;;;;;;20.43;46.22;101373.09;5028990;28;20048;-66
2023/10/23 04:05:54;;;;;;;2.20;2.00;;;;;;;20.44;46.13;101382.66;5026013;28;20037;-66
2023/10/23 04:08:19;;;;;;;4.15;2.17;;;;;;;20.43;46.14;101378.38;5019369;28;21355;-66
2023/10/23 04:10:46;;;;;;;2.85;2.20;;;;;;;20.41;46.05;101383.03;5032113;28;20053;-66
2023/10/23 04:13:12;;;;;;;2.45;2.25;;;;;;;20.45;45.96;101380.84;5025996;28;20036;-66
2023/10/23 04:15:38;;;;;;;2.72;2.10;;;;;;;20.42;45.99;101375.91;5019501;28;20160;-66
2023/10/23 04:18:04;;;;;;;2.95;2.20;;;;;;;20.42;46.19;101382.03;5032828;28;20171;-66
2023/10/23 04:20:30;;;;;;;2.83;2.20;;;;;;;20.40;46.16;101378.69;5021774;28;21034;-66
2023/10/23 04:22:55;;;;;;;2.72;2.45;;;;;;;20.34;46.23;101374.09;5028412;28;20036;-66
2023/10/23 04:25:21;;;;;;;2.63;2.00;;;;;;;20.40;46.05;101383.16;5030241;28;20066;-66
2023/10/23 04:27:46;;;;;;;2.55;2.22;;;;;;;20.42;46.17;101384.66;5030614;28;20393;-66
2023/10/23 04:30:12;;;;;;;2.45;2.00;;;;;;;20.44;46.05;101384.50;5030723;28;20410;-66
2023/10/23 04:32:38;;;;;;;2.38;2.17;;;;;;;20.43;46.13;101382.84;5025127;28;20127;-66
2023/10/23 04:35:04;;;;;;;3.80;2.67;;;;;;;20.42;46.11;101389.97;5033536;28;20041;-66
2023/10/23 04:37:29;;;;;;;2.78;2.25;;;;;;;20.42;46.22;101387.31;5024569;28;20542;-66
2023/10/23 04:39:55;;;;;;;2.92;2.15;;;;;;;20.43;46.13;101396.06;5030883;28;20049;-66
2023/10/23 04:42:20;;;;;;;2.53;2.20;;;;;;;20.43;46.16;101388.97;5028407;28;20034;-66
2023/10/23 04:44:49;;;;;;;3.38;2.10;;;;;;;20.42;46.21;101387.31;5017641;28;20500;-66
2023/10/23 04:47:14;;;;;;;2.78;2.30;;;;;;;20.43;46.01;101386.31;5020926;28;20029;-66
2023/10/23 04:49:40;;;;;;;3.03;2.00;;;;;;;20.42;46.07;101374.09;5017167;28;20820;-66
2023/10/23 04:52:06;;;;;;;2.20;2.00;;;;;;;20.42;46.06;101371.44;5029598;28;20265;-66
2023/10/23 04:54:31;;;;;;;2.63;2.40;;;;;;;20.43;46.25;101366.97;5026541;28;20043;-66
2023/10/23 04:56:57;;;;;;;3.42;2.33;;;;;;;20.40;46.12;101365.47;5021104;28;20079;-66
2023/10/23 04:59:22;;;;;;;2.10;1.90;;;;;;;20.42;46.13;101373.25;5026806;28;20075;-66
2023/10/23 05:01:49;;;;;;;2.33;2.10;;;;;;;20.41;46.19;101368.97;5028664;28;20072;-66
2023/10/23 05:04:14;;;;;;;4.22;2.40;;;;;;;20.38;46.12;101378.03;5024129;28;20491;-66
2023/10/23 05:06:40;;;;;;;2.58;2.17;;;;;;;20.37;46.23;101378.22;5028332;28;20052;-66
2023/10/23 05:09:06;;;;;;;3.55;2.00;;;;;;;20.39;46.22;101384.16;5021625;28;20050;-66
2023/10/23 05:11:32;;;;;;;3.15;2.30;;;;;;;20.39;46.20;101384.97;5017475;28;20046;-66
2023/10/23 05:13:58;;;;;;;2.65;2.05;;;;;;;20.40;46.13;101385.81;5021416;28;20418;-66
2023/10/23 05:16:24;;;;;;;2.40;2.20;;;;;;;20.36;46.09;101384.50;5036367;28;20026;-66
2023/10/23 05:18:49;;;;;;;2.40;2.20;;;;;;;20.38;46.16;101391.28;5026157;28;20042;-66
2023/10/23 05:21:15;;;;;;;4.32;2.40;;;;;;;20.38;46.10;101393.09;5031137;28;20033;-66
2023/10/23 05:23:41;;;;;;;3.00;2.25;;;;;;;20.39;46.08;101392.09;5026145;28;20745;-66
2023/10/23 05:26:10;;;;;;;3.15;2.33;;;;;;;20.37;46.14;101392.25;5034673;28;20041;-66
2023/10/23 05:28:38;;;;;;;3.22;2.25;;;;;;;20.35;46.14;101390.78;5025816;28;20045;-66
2023/10/23 05:31:03;;;;;;;2.33;2.13;;;;;;;20.38;46.19;101406.31;5020744;28;20049;-66
2023/10/23 05:33:29;;;;;;;3.05;2.15;;;;;;;20.35;46.22;101390.78;5034435;28;20045;-66
2023/10/23 05:36:05;;;;;;;4.47;2.30;;;;;;;20.37;46.15;101402.03;5021887;28;20037;-66
2023/10/23 05:38:31;;;;;;;2.30;2.10;;;;;;;20.34;46.47;101405.84;5029793;28;20072;-66
2023/10/23 05:40:58;;;;;;;2.55;2.28;;;;;;;20.35;46.12;101407.47;5030418;28;20038;-66
2023/10/23 05:43:28;;;;;;;2.80;2.10;;;;;;;20.33;46.16;101409.47;5036298;28;20121;-66
2023/10/23 05:45:54;;;;;;;2.50;2.15;;;;;;;20.31;46.19;101408.00;5026088;28;20057;-66
2023/10/23 05:48:19;;;;;;;4.28;2.30;;;;;;;20.34;46.01;101412.94;5032195;28;20069;-66
2023/10/23 05:50:45;;;;;;;2.55;2.33;;;;;;;20.31;46.19;101427.34;5017858;28;20504;-66
2023/10/23 05:53:11;;;;;;;3.05;2.38;;;;;;;20.29;46.25;101415.25;5020034;28;20120;-66
2023/10/23 05:55:36;;;;;;;2.40;2.20;;;;;;;20.35;46.05;101422.53;5022737;28;20038;-65
2023/10/23 05:58:02;;;;;;;2.40;2.20;;;;;;;20.36;45.94;101421.53;5025506;28;20052;-66
2023/10/23 06:00:28;;;;;;;2.63;2.30;;;;;;;20.36;46.04;101413.59;5025950;28;20499;-66
2023/10/23 06:02:54;;;;;;;2.90;1.90;;;;;;;20.44;45.90;101418.88;5028699;28;20037;-66
2023/10/23 06:05:19;;;;;;;3.15;2.30;;;;;;;20.67;45.64;101417.19;5039738;28;20048;-66
2023/10/23 06:07:45;;;;;;;2.83;2.00;;;;;;;21.67;43.82;101412.00;5023299;28;20041;-66
2023/10/23 06:10:11;;;;;;;2.70;2.25;;;;;;;22.64;42.12;101414.75;5025852;28;20433;-66
2023/10/23 06:12:36;;;;;;;2.78;2.13;;;;;;;22.83;41.41;101417.69;5024515;28;20040;-66
2023/10/23 06:15:03;;;;;;;3.17;2.15;;;;;;;22.73;42.07;101421.59;5031028;28;20090;-66
2023/10/23 06:17:28;;;;;;;2.55;2.17;;;;;;;22.53;42.24;101421.34;5030249;28;20068;-66
2023/10/23 06:19:54;;;;;;;2.17;1.83;;;;;;;22.35;42.90;101432.31;5033257;28;20487;-66
2023/10/23 06:22:19;;;;;;;2.65;2.25;;;;;;;22.15;43.08;101425.88;5025533;28;20029;-66
2023/10/23 06:24:45;;;;;;;2.45;2.00;;;;;;;22.04;43.16;101424.44;5031568;28;20041;-66
2023/10/23 06:27:10;;;;;;;2.10;1.95;;;;;;;21.88;43.58;101436.00;5032100;28;20029;-66
2023/10/23 06:29:36;;;;;;;2.63;2.10;;;;;;;21.74;44.25;101436.00;5031683;28;20037;-66
2023/10/23 06:32:02;;;;;;;2.80;2.40;;;;;;;21.56;44.24;101437.09;5026633;28;20050;-66
2023/10/23 06:34:28;;;;;;;2.47;2.15;;;;;;;21.41;44.71;101433.56;5025353;28;20099;-66
2023/10/23 06:36:53;;;;;;;2.25;2.00;;;;;;;21.33;44.88;101442.38;5025052;28;20037;-66
2023/10/23 06:39:19;;;;;;;2.88;2.08;;;;;;;21.24;44.95;101438.13;5020777;28;20033;-66
2023/10/23 06:41:44;;;;;;;2.58;2.08;;;;;;;21.22;45.11;101445.41;5029383;28;20091;-66
2023/10/23 06:44:10;;;;;;;2.50;2.00;;;;;;;21.17;45.33;101444.25;5019835;28;20483;-66
2023/10/23 06:46:35;;;;;;;2.08;1.90;;;;;;;21.16;45.42;101454.00;5026442;28;20044;-66
2023/10/23 06:49:01;;;;;;;2.40;2.20;;;;;;;21.11;45.49;101451.06;5024784;28;20052;-66
2023/10/23 06:51:26;;;;;;;2.40;2.20;;;;;;;21.11;45.63;101461.66;5014555;28;20033;-67
2023/10/23 06:53:52;;;;;;;2.53;2.20;;;;;;;21.08;45.60;101462.84;5019362;28;20041;-66
2023/10/23 06:56:17;;;;;;;3.55;2.17;;;;;;;21.06;45.46;101454.25;5025521;28;20041;-66
2023/10/23 06:58:43;;;;;;;2.30;2.10;;;;;;;20.93;45.70;101445.19;5019180;28;20084;-66
2023/10/23 07:01:09;;;;;;;3.80;2.10;;;;;;;21.01;45.55;101461.88;5028447;28;20045;-66
2023/10/23 07:03:35;;;;;;;2.35;2.10;;;;;;;21.02;45.93;101470.66;5027436;28;20090;-66
2023/10/23 07:06:07;;;;;;;2.03;1.77;;;;;;;20.99;45.79;101471.78;5026167;28;20045;-66
2023/10/23 07:08:33;;;;;;;2.42;2.10;;;;;;;20.95;45.75;101469.66;5027975;28;20045;-66
2023/10/23 07:10:59;;;;;;;2.90;2.10;;;;;;;20.94;45.87;101468.03;5021197;28;20112;-66
2023/10/23 07:13:24;;;;;;;3.20;2.25;;;;;;;20.95;45.86;101469.66;5021388;28;20479;-65
2023/10/23 07:15:50;;;;;;;2.55;2.17;;;;;;;20.93;45.61;101466.38;5020624;28;20484;-66
2023/10/23 07:18:17;;;;;;;2.85;2.10;;;;;;;20.85;45.75;101447.88;5026382;28;20582;-66
2023/10/23 07:21:01;;;;;;;2.72;2.40;;;;;;;20.88;45.80;101461.59;5017524;28;20041;-66
2023/10/23 07:23:29;;;;;;;2.30;1.92;;;;;;;20.79;45.74;101458.16;5020416;28;20104;-66
2023/10/23 07:26:08;;;;;;;3.25;2.20;;;;;;;20.88;45.91;101460.78;5022580;28;20033;-66
2023/10/23 07:28:36;;;;;;;2.78;2.05;;;;;;;20.85;45.73;101459.31;5024213;28;20045;-66
2023/10/23 07:31:03;;;;;;;2.95;2.00;;;;;;;20.83;45.66;101453.34;5021163;28;20041;-66
2023/10/23 07:33:28;;;;;;;3.05;2.08;;;;;;;20.89;45.73;101460.59;5016590;28;20479;-66
2023/10/23 07:36:04;;;;;;;3.72;2.35;;;;;;;20.90;45.60;101466.72;5023687;28;20126;-66
2023/10/23 07:38:30;;;;;;;3.00;1.95;;;;;;;20.89;45.57;101468.53;5017471;28;20605;-66
2023/10/23 07:40:57;;;;;;;2.45;2.22;;;;;;;20.92;45.68;101462.06;5027118;28;20360;-66
2023/10/23 07:43:25;;;;;;;2.40;2.15;;;;;;;20.78;45.72;101445.09;5025714;28;20099;-66
2023/10/23 07:45:50;;;;;;;2.80;2.20;;;;;;;20.92;45.60;101459.44;5018316;28;20056;-66
2023/10/23 07:48:17;;;;;;;2.35;1.95;;;;;;;20.90;45.74;101459.59;5020252;28;20034;-66
2023/10/23 07:50:42;;;;;;;2.67;2.20;;;;;;;20.94;45.62;101466.19;5026604;28;20049;-66
2023/10/23 07:53:08;;;;;;;2.30;1.88;;;;;;;20.95;45.61;101467.03;5021923;28;20037;-66
2023/10/23 07:55:33;;;;;;;2.53;2.08;;;;;;;20.99;45.42;101473.63;5026724;28;20107;-66
2023/10/23 07:58:00;;;;;;;2.95;2.13;;;;;;;20.85;45.50;101453.19;5014400;28;20553;-66
2023/10/23 08:00:27;;;;;;;2.97;2.00;;;;;;;20.97;45.67;101486.22;5028083;28;20037;-66
2023/10/23 08:02:53;;;;;;;2.33;2.13;;;;;;;20.99;45.28;101478.91;5020945;28;20391;-66
2023/10/23 08:05:18;;;;;;;2.13;1.88;;;;;;;21.00;45.33;101475.28;5032316;28;20041;-66
2023/10/23 08:07:44;;;;;;;2.47;2.25;;;;;;;20.95;45.46;101467.84;5017121;28;20038;-66
2023/10/23 08:10:09;;;;;;;2.70;2.00;;;;;;;20.99;45.27;101473.63;5018880;28;20638;-66
2023/10/23 08:12:35;;;;;;;3.22;2.25;;;;;;;20.99;45.49;101487.69;5020832;28;20041;-66
2023/10/23 08:15:00;;;;;;;2.63;2.17;;;;;;;21.02;45.19;101478.59;5024514;28;20095;-66
2023/10/23 08:17:26;;;;;;;3.08;2.20;;;;;;;20.96;45.28;101468.66;5031710;28;20026;-66
2023/10/23 08:19:51;;;;;;;2.47;2.10;;;;;;;21.01;45.32;101482.25;5030436;28;20037;-66
2023/10/23 08:22:17;;;;;;;2.13;1.85;;;;;;;21.00;45.33;101478.75;5024588;28;20033;-66
2023/10/23 08:24:42;;;;;;;2.22;2.03;;;;;;;21.05;45.15;101475.59;5031191;28;20034;-67
2023/10/23 08:27:08;;;;;;;1.90;1.80;;;;;;;21.13;45.48;101480.84;5023816;28;20048;-66
2023/10/23 08:29:33;;;;;;;2.35;2.13;;;;;;;21.38;44.64;101478.97;5021442;28;20053;-66
2023/10/23 08:31:59;;;;;;;2.10;1.90;;;;;;;21.68;44.36;101482.56;5020227;28;20060;-66
2023/10/23 08:34:25;;;;;;;2.97;2.00;;;;;;;21.66;44.43;101477.44;5025571;28;20037;-66
2023/10/23 08:36:50;;;;;;;2.30;1.90;;;;;;;21.68;44.21;101482.56;5023582;28;20041;-66
2023/10/23 08:39:18;;;;;;;2.83;2.05;;;;;;;21.64;44.26;101475.97;5022013;28;20037;-66
2023/10/23 08:41:43;;;;;;;3.17;2.08;;;;;;;21.57;44.11;101473.22;5031827;28;20049;-66
2023/10/23 08:44:09;;;;;;;2.60;1.90;;;;;;;21.61;44.50;101479.81;5022752;28;20037;-66
2023/10/23 08:46:37;;;;;;;2.85;2.03;;;;;;;21.62;44.32;101485.94;5023321;28;20475;-66
2023/10/23 08:49:03;;;;;;;2.78;2.05;;;;;;;21.61;44.23;101490.41;5021398;28;20052;-66
2023/10/23 08:51:29;;;;;;;2.10;1.92;;;;;;;21.58;44.66;101487.28;5023155;28;20508;-66
2023/10/23 08:54:26;;;;;;;2.58;2.10;;;;;;;21.57;44.29;101485.63;5026606;28;20411;-66
2023/10/23 08:57:02;;;;;;;2.53;2.17;;;;;;;21.52;44.57;101488.78;5022801;28;20050;-66
2023/10/23 08:59:28;;;;;;;3.35;2.20;;;;;;;21.54;44.43;101484.13;5024310;28;20033;-66
2023/10/23 09:01:55;;;;;;;2.30;2.05;;;;;;;21.53;44.64;101481.66;5028220;28;20034;-66
2023/10/23 09:04:20;;;;;;;2.53;2.00;;;;;;;21.51;44.86;101486.31;5028757;28;20061;-66
2023/10/23 09:06:47;;;;;;;2.40;2.03;;;;;;;21.50;44.54;101485.50;5026567;28;20040;-66
2023/10/23 09:09:13;;;;;;;2.78;2.20;;;;;;;21.50;44.35;101490.78;5028613;28;20045;-66
2023/10/23 09:11:43;;;;;;;2.28;2.08;;;;;;;21.48;44.80;101486.66;5031852;28;20399;-66
2023/10/23 09:14:10;;;;;;;2.78;2.10;;;;;;;21.50;44.62;101492.63;5032604;28;20468;-66
2023/10/23 09:16:36;;;;;;;2.30;2.10;;;;;;;21.45;44.54;101493.16;5027688;28;20106;-66
2023/10/23 09:19:02;;;;;;;2.20;2.00;;;;;;;21.47;44.94;101488.50;5027144;28;20041;-66
2023/10/23 09:21:29;;;;;;;3.00;2.30;;;;;;;21.45;44.57;101489.66;5029750;28;20259;-66
2023/10/23 09:23:58;;;;;;;2.75;2.10;;;;;;;21.47;44.76;101495.63;5023914;28;20103;-66
2023/10/23 09:26:24;;;;;;;2.28;1.98;;;;;;;21.45;44.71;101493.16;5022558;28;20046;-66
2023/10/23 09:28:52;;;;;;;3.22;2.10;;;;;;;21.42;44.56;101491.66;5030176;28;20561;-66
2023/10/23 09:31:21;;;;;;;3.47;2.30;;;;;;;21.31;44.75;101470.03;5029270;28;20144;-66
2023/10/23 09:33:49;;;;;;;3.28;2.42;;;;;;;21.44;44.68;101485.38;5033797;28;20634;-66
2023/10/23 09:36:15;;;;;;;3.20;2.17;;;;;;;21.42;44.71;101483.72;5031671;28;20103;-66
2023/10/23 09:38:55;;;;;;;2.30;2.10;;;;;;;21.38;44.80;101476.31;5020707;28;20125;-66
2023/10/23 09:41:21;;;;;;;2.42;2.00;;;;;;;21.44;44.35;101483.56;5029590;28;20130;-66
2023/10/23 09:43:47;;;;;;;4.22;2.70;;;;;;;21.39;44.58;101496.50;5031973;28;20092;-66
2023/10/23 09:46:13;;;;;;;3.78;2.28;;;;;;;21.34;44.88;101483.75;5025447;28;20495;-66
2023/10/23 09:48:41;;;;;;;3.10;2.05;;;;;;;21.41;44.56;101489.19;5027162;28;20056;-66
2023/10/23 09:51:12;;;;;;;4.15;3.10;;;;;;;21.38;44.78;101490.38;5021479;28;20581;-66
2023/10/23 09:53:39;;;;;;;3.03;2.30;;;;;;;21.35;44.74;101482.75;5020476;28;20041;-66
2023/10/23 09:56:07;;;;;;;2.35;1.90;;;;;;;21.21;44.65;101462.28;5033323;28;20121;-66
2023/10/23 09:58:35;;;;;;;2.03;1.80;;;;;;;21.35;44.95;101479.28;5027288;28;20045;-67
2023/10/23 10:01:04;;;;;;;4.15;2.40;;;;;;;21.33;44.76;101475.97;5021982;28;20029;-66
2023/10/23 10:03:35;;;;;;;2.17;1.98;;;;;;;21.33;44.71;101468.03;5031030;28;20530;-66
2023/10/23 10:06:13;;;;;;;2.60;2.05;;;;;;;21.19;44.86;101442.28;5017506;28;20124;-66
2023/10/23 10:08:46;;;;;;;2.60;2.30;;;;;;;21.27;44.85;101464.25;5030826;28;20063;-66
2023/10/23 10:11:13;;;;;;;2.42;2.20;;;;;;;21.30;44.74;101473.69;5026127;28;20079;-66
2023/10/23 10:13:39;;;;;;;3.50;2.53;;;;;;;21.14;44.62;101448.06;5023813;28;20044;-66
2023/10/23 10:16:06;;;;;;;2.72;2.28;;;;;;;21.29;44.88;101467.56;5026723;28;20041;-66
2023/10/23 10:18:34;;;;;;;3.47;2.33;;;;;;;21.29;44.98;101469.38;5017984;28;20068;-66
2023/10/23 10:21:04;;;;;;;2.20;2.00;;;;;;;21.28;44.81;101470.38;5022968;28;20882;-66
2023/10/23 10:23:31;;;;;;;2.28;1.92;;;;;;;21.26;44.86;101473.22;5027252;28;20037;-66
2023/10/23 10:25:57;;;;;;;2.92;2.30;;;;;;;21.25;45.11;101463.63;5028739;28;20555;-66
2023/10/23 10:28:26;;;;;;;3.05;2.33;;;;;;;21.25;44.85;101471.56;5019092;28;20064;-66
2023/10/23 10:30:54;;;;;;;3.37;1.90;;;;;;;21.26;44.86;101464.44;5027312;28;20047;-66
2023/10/23 10:33:29;;;;;;;2.75;2.20;;;;;;;21.21;45.20;101464.94;5055669;28;20052;-66
2023/10/23 10:35:59;;;;;;;2.70;2.10;;;;;;;21.21;44.98;101470.25;5020896;28;20407;-66
2023/10/23 10:38:26;;;;;;;3.28;2.38;;;;;;;21.22;45.07;101476.34;5024993;28;20030;-66
2023/10/23 10:40:56;;;;;;;2.13;1.90;;;;;;;21.25;45.00;101473.38;5024551;28;20033;-66
2023/10/23 10:43:29;;;;;;;2.30;2.10;;;;;;;21.30;45.07;101476.34;5022575;28;20029;-66
2023/10/23 10:45:55;;;;;;;2.58;2.00;;;;;;;21.46;44.59;101468.28;5022466;28;20052;-66
2023/10/23 10:48:27;;;;;;;4.53;2.47;;;;;;;21.49;44.47;101454.69;5016260;28;21313;-66
2023/10/23 10:50:54;;;;;;;5.68;2.10;;;;;;;21.56;44.45;101460.13;5019082;28;20038;-66
2023/10/23 10:53:23;;;;;;;2.85;2.20;;;;;;;21.55;44.32;101458.50;5022605;28;20045;-66
2023/10/23 10:55:48;;;;;;;5.80;2.10;;;;;;;21.55;44.62;101455.84;5018200;28;20192;-66
2023/10/23 10:58:15;;;;;;;3.95;2.45;;;;;;;21.50;44.39;101444.91;5021347;28;20645;-67
2023/10/23 11:00:40;;;;;;;3.42;2.10;;;;;;;21.51;44.67;101444.75;5018145;28;20084;-66
2023/10/23 11:03:06;;;;;;;2.28;2.05;;;;;;;21.48;44.80;101450.41;5024968;28;20510;-66
2023/10/23 11:05:35;;;;;;;2.60;2.22;;;;;;;21.49;44.78;101437.97;5030965;28;20064;-66
2023/10/23 11:08:03;;;;;;;4.28;2.60;;;;;;;21.48;44.89;101439.78;5030356;28;20049;-66
2023/10/23 11:10:29;;;;;;;3.25;2.40;;;;;;;21.50;44.67;101429.03;5029150;28;20067;-66
2023/10/23 11:12:55;;;;;;;3.65;2.33;;;;;;;21.47;44.53;101432.84;5019532;28;20045;-66
2023/10/23 11:15:20;;;;;;;2.83;2.25;;;;;;;21.46;44.80;101423.25;5026667;28;20045;-66
2023/10/23 11:17:46;;;;;;;1.95;1.80;;;;;;;21.41;44.71;101437.03;5022566;28;20036;-66
2023/10/23 11:20:13;;;;;;;2.90;2.50;;;;;;;21.40;44.91;101432.75;5032887;28;20428;-66
2023/10/23 11:22:44;;;;;;;2.40;2.20;;;;;;;21.41;45.02;101437.03;5024556;28;20044;-66